Time;durP1;ratioP1;P1;durP2;ratioP2;P2;SDS_P1;SDS_P2;PMS_P1;PMS_P2;Temp;Humidity;BMP_temperature;BMP_pressure;BME280_temperature;BME280_humidity;BME280_pressure;Samples;Min_cycle;Max_cycle;Signal;HPM_P1;HPM_P2
2024/02/19 00:02:00;;;;;;;2.65;2.05;;;9.50;99.90;;;;;;5052333;28;20032;-77
2024/02/19 00:04:26;;;;;;;3.05;1.77;;;9.50;99.90;;;;;;5052029;28;20024;-77
2024/02/19 00:06:52;;;;;;;2.40;1.75;;;9.60;99.90;;;;;;5052202;28;20021;-77
2024/02/19 00:09:19;;;;;;;3.80;2.08;;;9.50;99.90;;;;;;5051513;28;20021;-77
2024/02/19 00:11:46;;;;;;;3.55;2.40;;;9.50;99.90;;;;;;5051980;28;20447;-76
2024/02/19 00:14:12;;;;;;;3.28;1.83;;;9.50;99.90;;;;;;5052333;28;20517;-77
2024/02/19 00:16:38;;;;;;;3.08;1.67;;;9.50;99.90;;;;;;5052497;28;20027;-77
2024/02/19 00:19:05;;;;;;;4.05;2.13;;;9.40;99.90;;;;;;5052321;28;20462;-77
2024/02/19 00:21:31;;;;;;;4.93;2.30;;;9.40;99.90;;;;;;5052864;28;20028;-77
2024/02/19 00:23:57;;;;;;;3.25;2.03;;;9.40;99.90;;;;;;5053396;28;20060;-77
2024/02/19 00:26:22;;;;;;;3.60;2.15;;;9.40;99.90;;;;;;5052457;28;20053;-76
2024/02/19 00:28:48;;;;;;;4.40;2.13;;;9.50;99.90;;;;;;5053429;28;20029;-77
2024/02/19 00:31:16;;;;;;;4.55;2.20;;;9.50;99.90;;;;;;5051429;28;20080;-76
2024/02/19 00:33:42;;;;;;;4.60;2.10;;;9.50;99.90;;;;;;5053038;28;20451;-77
2024/02/19 00:36:07;;;;;;;4.60;2.53;;;9.50;99.90;;;;;;5053223;28;20029;-77
2024/02/19 00:38:33;;;;;;;4.38;2.50;;;9.50;99.90;;;;;;5052291;28;20123;-77
2024/02/19 00:40:58;;;;;;;6.85;2.20;;;9.50;99.90;;;;;;5051534;28;20063;-77
2024/02/19 00:43:24;;;;;;;5.93;2.50;;;9.50;99.90;;;;;;5051083;28;20074;-77
2024/02/19 00:45:51;;;;;;;4.75;2.35;;;9.50;99.90;;;;;;5051759;28;20036;-77
2024/02/19 00:48:17;;;;;;;3.05;2.20;;;9.60;99.90;;;;;;5051198;28;20111;-77
2024/02/19 00:50:42;;;;;;;3.63;1.92;;;9.60;99.90;;;;;;5051564;28;20056;-77
2024/02/19 00:53:08;;;;;;;3.83;2.33;;;9.60;99.90;;;;;;5051813;28;20125;-77
2024/02/19 00:55:33;;;;;;;4.50;1.88;;;9.60;99.90;;;;;;5052435;28;20029;-77
2024/02/19 00:57:59;;;;;;;3.33;1.90;;;9.60;99.90;;;;;;5051668;28;20028;-77
2024/02/19 01:00:26;;;;;;;3.25;2.08;;;9.60;99.90;;;;;;5051287;28;20124;-77
2024/02/19 01:02:52;;;;;;;3.05;2.00;;;9.60;99.90;;;;;;5051710;28;20025;-77
2024/02/19 01:05:18;;;;;;;5.55;2.22;;;9.60;99.90;;;;;;5050879;28;20036;-76
2024/02/19 01:07:43;;;;;;;4.55;2.28;;;9.60;99.90;;;;;;5051462;28;20078;-77
2024/02/19 01:10:09;;;;;;;3.72;2.35;;;9.60;99.90;;;;;;5052630;28;20117;-77
2024/02/19 01:12:36;;;;;;;3.20;2.30;;;9.70;99.90;;;;;;5050895;28;20459;-77
2024/02/19 01:15:02;;;;;;;3.30;2.33;;;9.60;99.90;;;;;;5052935;28;20473;-77
2024/02/19 01:17:29;;;;;;;3.15;2.10;;;9.60;99.90;;;;;;5056493;28;20025;-77
2024/02/19 01:19:56;;;;;;;3.17;2.55;;;9.60;99.90;;;;;;5055609;28;20096;-77
2024/02/19 01:22:21;;;;;;;4.45;1.88;;;9.60;99.90;;;;;;5055176;28;20351;-77
2024/02/19 01:24:48;;;;;;;2.65;2.20;;;9.60;99.90;;;;;;5056033;28;20032;-77
2024/02/19 01:27:14;;;;;;;3.63;2.08;;;9.60;99.90;;;;;;5055684;28;20032;-76
2024/02/19 01:29:39;;;;;;;4.43;2.30;;;9.70;99.90;;;;;;5056207;28;20025;-76
2024/02/19 01:32:05;;;;;;;3.70;2.67;;;9.70;99.90;;;;;;5055537;28;20078;-76
2024/02/19 01:34:31;;;;;;;3.60;2.10;;;9.60;99.90;;;;;;5055808;28;20037;-76
2024/02/19 01:36:59;;;;;;;5.03;2.42;;;9.70;99.90;;;;;;5072008;28;20028;-76
2024/02/19 01:39:25;;;;;;;3.28;1.95;;;9.70;99.90;;;;;;5054425;28;20077;-76
2024/02/19 01:41:51;;;;;;;2.85;2.30;;;9.70;99.90;;;;;;5054372;28;20112;-75
2024/02/19 01:44:17;;;;;;;4.00;2.38;;;9.70;99.90;;;;;;5054993;28;20044;-76
2024/02/19 01:46:44;;;;;;;4.82;1.90;;;9.70;99.90;;;;;;5054773;28;20425;-76
2024/02/19 01:49:10;;;;;;;4.35;2.55;;;9.70;99.90;;;;;;5055596;28;20031;-76
2024/02/19 01:51:37;;;;;;;3.45;2.22;;;9.70;99.90;;;;;;5053690;28;20032;-76
2024/02/19 01:54:03;;;;;;;5.15;2.50;;;9.70;99.90;;;;;;5054700;28;20110;-76
2024/02/19 01:56:29;;;;;;;3.63;2.17;;;9.70;99.90;;;;;;5054266;28;20060;-76
2024/02/19 01:58:56;;;;;;;3.75;2.33;;;9.70;99.90;;;;;;5055916;28;20017;-76
2024/02/19 02:01:23;;;;;;;5.05;2.42;;;9.80;99.90;;;;;;5053954;28;20025;-76
2024/02/19 02:03:50;;;;;;;6.07;2.40;;;9.70;99.90;;;;;;5054360;28;20025;-76
2024/02/19 02:06:16;;;;;;;3.63;2.00;;;9.80;99.90;;;;;;5054695;28;20040;-76
2024/02/19 02:08:42;;;;;;;6.07;2.20;;;9.80;99.90;;;;;;5054081;28;20381;-76
2024/02/19 02:11:07;;;;;;;2.60;2.30;;;9.80;99.90;;;;;;5055292;28;20447;-76
2024/02/19 02:13:34;;;;;;;4.00;2.30;;;9.80;99.90;;;;;;5054559;28;20025;-76
2024/02/19 02:16:03;;;;;;;4.45;2.65;;;9.80;99.90;;;;;;5054309;28;20041;-76
2024/02/19 02:18:32;;;;;;;4.30;2.28;;;9.80;99.90;;;;;;5053726;28;20025;-76
2024/02/19 02:20:58;;;;;;;3.40;2.33;;;9.80;99.90;;;;;;5055319;28;20056;-75
2024/02/19 02:23:25;;;;;;;3.85;2.42;;;9.80;99.90;;;;;;5053578;28;20056;-76
2024/02/19 02:25:53;;;;;;;3.88;2.40;;;9.80;99.90;;;;;;5054750;28;20111;-76
2024/02/19 02:28:24;;;;;;;4.90;2.70;;;9.80;99.90;;;;;;5053955;28;20466;-75
2024/02/19 02:30:50;;;;;;;3.20;2.33;;;9.80;99.90;;;;;;5055420;28;20047;-76
2024/02/19 02:33:17;;;;;;;3.63;2.10;;;9.80;99.90;;;;;;5054166;28;20029;-76
2024/02/19 02:35:42;;;;;;;2.50;2.17;;;9.90;99.90;;;;;;5053394;28;20033;-76
2024/02/19 02:38:08;;;;;;;3.70;2.63;;;9.80;99.90;;;;;;5055292;28;20025;-76
2024/02/19 02:40:35;;;;;;;4.07;2.40;;;9.90;99.90;;;;;;5054706;28;20028;-76
2024/02/19 02:43:01;;;;;;;3.55;2.40;;;9.90;99.90;;;;;;5054628;28;20052;-76
2024/02/19 02:45:26;;;;;;;3.15;2.00;;;9.90;99.90;;;;;;5053090;28;20033;-75
2024/02/19 02:47:52;;;;;;;4.93;2.50;;;9.90;99.90;;;;;;5053519;28;20425;-76
2024/02/19 02:50:17;;;;;;;2.85;1.98;;;9.90;99.90;;;;;;5053505;28;20474;-76
2024/02/19 02:52:43;;;;;;;4.00;2.60;;;9.90;99.90;;;;;;5052817;28;20025;-76
2024/02/19 02:55:09;;;;;;;3.85;2.10;;;9.90;99.90;;;;;;5053340;28;20037;-76
2024/02/19 02:57:34;;;;;;;5.43;2.05;;;9.90;99.90;;;;;;5054016;28;20032;-75
2024/02/19 03:00:00;;;;;;;3.92;2.10;;;9.90;99.90;;;;;;5053311;28;20021;-76
2024/02/19 03:02:25;;;;;;;4.88;2.03;;;9.90;99.90;;;;;;5054307;28;20035;-75
2024/02/19 03:04:51;;;;;;;4.82;1.92;;;9.90;99.90;;;;;;5053302;28;20028;-76
2024/02/19 03:07:17;;;;;;;3.30;2.15;;;9.90;99.90;;;;;;5053349;28;20115;-76
2024/02/19 03:09:42;;;;;;;4.35;2.38;;;10.00;99.90;;;;;;5052731;28;20487;-76
2024/02/19 03:12:08;;;;;;;4.05;2.10;;;10.00;99.90;;;;;;5052986;28;20025;-75
2024/02/19 03:14:35;;;;;;;3.28;2.30;;;10.00;99.90;;;;;;5053738;28;20037;-76
2024/02/19 03:17:01;;;;;;;3.90;2.67;;;10.00;99.90;;;;;;5053384;28;20473;-76
2024/02/19 03:19:26;;;;;;;5.25;2.60;;;9.90;99.90;;;;;;5053047;28;20036;-76
2024/02/19 03:21:54;;;;;;;3.13;2.30;;;9.90;99.90;;;;;;5053705;28;20021;-76
2024/02/19 03:24:20;;;;;;;4.07;2.47;;;10.00;99.90;;;;;;5052991;28;20123;-76
2024/02/19 03:26:46;;;;;;;4.07;2.40;;;10.00;99.90;;;;;;5052365;28;20482;-76
2024/02/19 03:29:12;;;;;;;4.38;2.70;;;9.90;99.90;;;;;;5054097;28;20025;-76
2024/02/19 03:31:39;;;;;;;3.53;2.28;;;9.90;99.90;;;;;;5052695;28;20025;-76
2024/02/19 03:34:05;;;;;;;4.85;2.63;;;9.90;99.90;;;;;;5054240;28;20032;-76
2024/02/19 03:36:31;;;;;;;3.85;2.40;;;9.80;99.90;;;;;;5052476;28;20154;-76
2024/02/19 03:38:57;;;;;;;3.67;2.60;;;9.80;99.90;;;;;;5053659;28;20025;-76
2024/02/19 03:41:22;;;;;;;4.38;2.53;;;9.80;99.90;;;;;;5052817;28;20492;-76
2024/02/19 03:43:48;;;;;;;3.60;2.22;;;9.80;99.90;;;;;;5052042;28;20057;-76
2024/02/19 03:46:14;;;;;;;3.60;2.25;;;9.70;99.90;;;;;;5054237;28;20025;-77
2024/02/19 03:48:40;;;;;;;3.88;2.75;;;9.70;99.90;;;;;;5053530;28;20024;-76
2024/02/19 03:51:05;;;;;;;4.70;2.67;;;9.70;99.90;;;;;;5052788;28;20387;-76
2024/02/19 03:53:31;;;;;;;4.32;2.20;;;9.70;99.90;;;;;;5053486;28;20021;-76
2024/02/19 03:55:58;;;;;;;4.93;2.22;;;9.70;99.90;;;;;;5053323;28;20033;-76
2024/02/19 03:58:24;;;;;;;4.32;2.47;;;9.70;99.90;;;;;;5052706;28;20382;-77
2024/02/19 04:00:49;;;;;;;3.78;2.60;;;9.70;99.90;;;;;;5052243;28;20029;-76
2024/02/19 04:03:16;;;;;;;4.05;2.75;;;9.70;99.90;;;;;;5052560;28;20438;-77
2024/02/19 04:05:42;;;;;;;5.43;2.40;;;9.60;99.90;;;;;;5053453;28;20036;-77
2024/02/19 04:08:08;;;;;;;4.07;2.17;;;9.60;99.90;;;;;;5052447;28;20481;-77
2024/02/19 04:10:34;;;;;;;3.78;2.40;;;9.60;99.90;;;;;;5053300;28;20021;-77
2024/02/19 04:12:59;;;;;;;4.57;2.47;;;9.60;99.90;;;;;;5052409;28;20029;-77
2024/02/19 04:15:27;;;;;;;3.97;2.50;;;9.60;99.90;;;;;;5052436;28;20071;-77
2024/02/19 04:17:52;;;;;;;3.35;2.33;;;9.60;99.90;;;;;;5052165;28;20032;-77
2024/02/19 04:20:18;;;;;;;5.20;2.22;;;9.60;99.90;;;;;;5052500;28;20021;-77
2024/02/19 04:22:44;;;;;;;2.35;2.03;;;9.60;99.90;;;;;;5051706;28;20025;-77
2024/02/19 04:25:09;;;;;;;4.03;1.98;;;9.60;99.90;;;;;;5052123;28;20060;-77
2024/02/19 04:27:35;;;;;;;3.58;2.35;;;9.70;99.90;;;;;;5051953;28;20549;-77
2024/02/19 04:30:00;;;;;;;4.72;2.20;;;9.70;99.90;;;;;;5052810;28;20032;-77
2024/02/19 04:32:26;;;;;;;6.15;2.30;;;9.80;99.90;;;;;;5052560;28;20424;-77
2024/02/19 04:34:54;;;;;;;2.78;2.13;;;9.80;99.90;;;;;;5051728;28;20063;-77
2024/02/19 04:37:20;;;;;;;5.25;2.30;;;9.80;99.90;;;;;;5053257;28;20111;-76
2024/02/19 04:39:46;;;;;;;2.22;1.88;;;9.80;99.90;;;;;;5051452;28;20120;-76
2024/02/19 04:42:11;;;;;;;3.03;1.88;;;9.90;99.90;;;;;;5052774;28;20069;-76
2024/02/19 04:44:39;;;;;;;3.67;2.30;;;9.90;99.90;;;;;;5052082;28;20040;-76
2024/02/19 04:47:04;;;;;;;3.97;2.20;;;9.90;99.90;;;;;;5052962;28;20116;-76
2024/02/19 04:49:30;;;;;;;3.35;2.00;;;9.90;99.90;;;;;;5050377;28;20060;-76
2024/02/19 04:51:55;;;;;;;5.55;2.03;;;9.90;99.90;;;;;;5052463;28;20028;-76
2024/02/19 04:54:21;;;;;;;4.38;2.17;;;10.00;99.90;;;;;;5052433;28;20058;-76
2024/02/19 04:56:47;;;;;;;4.43;2.30;;;10.00;99.90;;;;;;5051080;28;20466;-76
2024/02/19 04:59:12;;;;;;;2.75;1.92;;;10.00;99.90;;;;;;5052802;28;20025;-76
2024/02/19 05:01:38;;;;;;;4.93;2.20;;;10.00;99.90;;;;;;5050919;28;20116;-76
2024/02/19 05:04:03;;;;;;;3.67;2.30;;;10.00;99.90;;;;;;5051955;28;20032;-76
2024/02/19 05:06:29;;;;;;;4.63;2.15;;;10.00;99.90;;;;;;5051575;28;20025;-76
2024/02/19 05:08:55;;;;;;;3.25;2.00;;;10.00;99.90;;;;;;5051564;28;20074;-76
2024/02/19 05:11:21;;;;;;;2.65;1.83;;;10.00;99.90;;;;;;5051165;28;20028;-76
2024/02/19 05:13:46;;;;;;;4.72;2.20;;;10.10;99.90;;;;;;5050815;28;20033;-76
2024/02/19 05:16:12;;;;;;;12.25;5.00;;;10.10;99.90;;;;;;5051641;28;20032;-76
2024/02/19 05:18:37;;;;;;;9.40;5.47;;;10.10;99.90;;;;;;5051844;28;20036;-76
2024/02/19 05:21:03;;;;;;;7.97;4.60;;;10.10;99.90;;;;;;5051258;28;20029;-76
2024/02/19 05:23:29;;;;;;;6.88;2.30;;;10.10;99.90;;;;;;5052966;28;20396;-76
2024/02/19 05:25:55;;;;;;;4.80;2.47;;;10.20;99.90;;;;;;5050995;28;20105;-77
2024/02/19 05:28:20;;;;;;;5.88;2.30;;;10.10;99.90;;;;;;5051124;28;20465;-76
2024/02/19 05:30:46;;;;;;;6.30;2.17;;;10.10;99.90;;;;;;5051737;28;20576;-76
2024/02/19 05:33:13;;;;;;;7.18;2.13;;;10.20;99.90;;;;;;5051258;28;20028;-76
2024/02/19 05:35:38;;;;;;;2.47;1.50;;;10.20;99.90;;;;;;5050400;28;20077;-76
2024/02/19 05:38:04;;;;;;;2.80;1.35;;;10.20;99.90;;;;;;5051197;28;20163;-76
2024/02/19 05:40:29;;;;;;;2.75;1.45;;;10.20;99.90;;;;;;5051102;28;20040;-76
2024/02/19 05:42:55;;;;;;;3.63;1.30;;;10.20;99.90;;;;;;5050226;28;20458;-76
2024/02/19 05:45:20;;;;;;;3.38;1.20;;;10.20;99.90;;;;;;5051452;28;20036;-76
2024/02/19 05:47:47;;;;;;;4.97;1.42;;;10.20;99.90;;;;;;5051547;28;20025;-76
2024/02/19 05:50:13;;;;;;;2.30;1.17;;;10.20;99.90;;;;;;5051287;28;20083;-76
2024/02/19 05:52:38;;;;;;;2.83;1.52;;;10.10;99.90;;;;;;5050666;28;20025;-76
2024/02/19 05:55:05;;;;;;;2.08;1.10;;;10.10;99.90;;;;;;5051235;28;20044;-76
2024/02/19 05:57:30;;;;;;;3.65;0.93;;;10.00;99.90;;;;;;5051005;28;20492;-76
2024/02/19 05:59:56;;;;;;;2.97;1.15;;;10.00;99.90;;;;;;5050145;28;20021;-76
2024/02/19 06:02:21;;;;;;;2.22;0.88;;;9.90;99.90;;;;;;5054812;28;20021;-76
2024/02/19 06:04:47;;;;;;;2.72;0.82;;;9.90;99.90;;;;;;5054713;28;20033;-75
2024/02/19 06:07:12;;;;;;;4.15;1.10;;;9.90;99.90;;;;;;5054074;28;20033;-75
2024/02/19 06:09:40;;;;;;;1.27;0.70;;;9.90;99.90;;;;;;5053879;28;20025;-75
2024/02/19 06:12:07;;;;;;;3.60;0.80;;;9.80;99.90;;;;;;5054150;28;20029;-77
2024/02/19 06:14:32;;;;;;;4.00;0.80;;;9.90;99.90;;;;;;5054244;28;20048;-77
2024/02/19 06:16:58;;;;;;;2.83;0.80;;;9.80;99.90;;;;;;5054039;28;20021;-75
2024/02/19 06:19:24;;;;;;;0.52;0.50;;;9.80;99.90;;;;;;5054360;28;20071;-76
2024/02/19 06:21:50;;;;;;;3.75;0.85;;;9.80;99.90;;;;;;5053795;28;20043;-76
2024/02/19 06:24:15;;;;;;;2.55;0.60;;;9.80;99.90;;;;;;5053543;28;20025;-76
2024/02/19 06:26:41;;;;;;;1.83;0.70;;;9.80;99.90;;;;;;5053699;28;20031;-77
2024/02/19 06:29:07;;;;;;;1.92;0.70;;;9.80;99.90;;;;;;5055388;28;20025;-76
2024/02/19 06:31:33;;;;;;;2.28;0.70;;;9.80;99.90;;;;;;5053709;28;20035;-76
2024/02/19 06:33:58;;;;;;;2.55;0.77;;;9.80;99.90;;;;;;5054669;28;20033;-76
2024/02/19 06:36:24;;;;;;;2.60;1.40;;;9.80;99.90;;;;;;5053908;28;20477;-76
2024/02/19 06:38:50;;;;;;;1.50;0.88;;;9.80;99.90;;;;;;5053424;28;20066;-75
2024/02/19 06:41:15;;;;;;;3.97;0.70;;;9.80;99.90;;;;;;5055232;28;20033;-76
2024/02/19 06:43:41;;;;;;;4.30;1.00;;;9.90;99.90;;;;;;5054058;28;20060;-76
2024/02/19 06:46:08;;;;;;;2.42;0.90;;;9.90;99.90;;;;;;5054000;28;20079;-76
2024/02/19 06:48:33;;;;;;;1.35;0.73;;;9.80;99.90;;;;;;5055017;28;20481;-76
2024/02/19 06:50:59;;;;;;;2.70;1.27;;;9.80;99.90;;;;;;5054312;28;20029;-76
2024/02/19 06:53:24;;;;;;;2.28;0.85;;;9.80;99.90;;;;;;5053876;28;20507;-76
2024/02/19 06:55:50;;;;;;;3.08;0.90;;;9.70;99.90;;;;;;5053152;28;20041;-75
2024/02/19 06:58:16;;;;;;;2.70;0.88;;;9.80;99.90;;;;;;5053759;28;20428;-75
2024/02/19 07:00:42;;;;;;;4.38;1.30;;;9.70;99.90;;;;;;5053244;28;20028;-75
2024/02/19 07:03:07;;;;;;;1.48;0.73;;;9.70;99.90;;;;;;5054573;28;20036;-76
2024/02/19 07:05:33;;;;;;;1.30;0.70;;;9.70;99.90;;;;;;5054653;28;20033;-76
2024/02/19 07:07:58;;;;;;;2.83;0.75;;;9.60;99.90;;;;;;5052883;28;20021;-76
2024/02/19 07:10:24;;;;;;;2.83;1.30;;;9.70;99.90;;;;;;5053461;28;20032;-76
2024/02/19 07:12:49;;;;;;;4.15;0.93;;;9.60;99.90;;;;;;5052335;28;20120;-75
2024/02/19 07:15:15;;;;;;;5.55;0.70;;;9.60;99.90;;;;;;5054563;28;20044;-76
2024/02/19 07:17:41;;;;;;;3.67;0.70;;;9.70;99.90;;;;;;5052688;28;20028;-75
2024/02/19 07:20:07;;;;;;;2.83;0.77;;;9.70;99.90;;;;;;5054753;28;20027;-76
2024/02/19 07:22:32;;;;;;;1.40;0.70;;;9.70;99.90;;;;;;5053222;28;20458;-75
2024/02/19 07:24:58;;;;;;;2.25;0.70;;;9.70;99.90;;;;;;5053729;28;20044;-76
2024/02/19 07:27:25;;;;;;;4.43;0.90;;;9.70;99.90;;;;;;5053152;28;20359;-75
2024/02/19 07:29:53;;;;;;;1.85;0.90;;;9.80;99.90;;;;;;5052414;28;20141;-75
2024/02/19 07:32:19;;;;;;;3.05;1.08;;;9.80;99.90;;;;;;5052893;28;20024;-76
2024/02/19 07:34:45;;;;;;;2.28;0.75;;;9.80;99.90;;;;;;5052087;28;20044;-75
2024/02/19 07:37:10;;;;;;;3.22;0.82;;;9.80;99.90;;;;;;5054059;28;20029;-74
2024/02/19 07:39:41;;;;;;;3.15;1.35;;;9.80;99.90;;;;;;5052728;28;20025;-74
2024/02/19 07:42:09;;;;;;;3.53;0.77;;;9.80;99.90;;;;;;5053753;28;20074;-74
2024/02/19 07:44:35;;;;;;;3.35;1.00;;;9.80;99.90;;;;;;5053943;28;20099;-75
2024/02/19 07:47:04;;;;;;;3.05;1.17;;;9.80;99.90;;;;;;5053249;28;20029;-74
2024/02/19 07:49:30;;;;;;;3.95;1.00;;;9.90;99.90;;;;;;5052546;28;20032;-74
2024/02/19 07:51:56;;;;;;;5.25;0.95;;;9.90;99.90;;;;;;5053416;28;20024;-75
2024/02/19 07:54:21;;;;;;;3.67;1.40;;;9.90;99.90;;;;;;5052169;28;20041;-75
2024/02/19 07:56:47;;;;;;;2.70;1.13;;;9.90;99.90;;;;;;5051939;28;20056;-75
2024/02/19 07:59:12;;;;;;;4.90;1.08;;;10.00;99.90;;;;;;5052542;28;20497;-75
2024/02/19 08:01:38;;;;;;;3.55;0.95;;;10.00;99.90;;;;;;5053710;28;20523;-75
2024/02/19 08:04:04;;;;;;;3.92;1.08;;;10.00;99.90;;;;;;5051697;28;20522;-75
2024/02/19 08:06:29;;;;;;;3.35;1.25;;;10.00;99.90;;;;;;5052252;28;20033;-75
2024/02/19 08:08:55;;;;;;;4.85;1.05;;;10.00;99.90;;;;;;5051565;28;20032;-75
2024/02/19 08:11:21;;;;;;;2.47;1.08;;;10.00;99.90;;;;;;5053187;28;20036;-75
2024/02/19 08:13:47;;;;;;;3.40;1.38;;;10.10;99.90;;;;;;5051653;28;20035;-76
2024/02/19 08:16:13;;;;;;;3.50;1.40;;;10.10;99.90;;;;;;5052250;28;20033;-75
2024/02/19 08:18:40;;;;;;;2.25;1.30;;;10.00;99.90;;;;;;5053479;28;20078;-75
2024/02/19 08:21:05;;;;;;;3.75;0.93;;;10.10;99.90;;;;;;5051481;28;20029;-75
2024/02/19 08:23:31;;;;;;;2.60;0.90;;;10.10;99.90;;;;;;5051778;28;20059;-75
2024/02/19 08:25:57;;;;;;;5.15;1.02;;;10.10;99.90;;;;;;5051993;28;20025;-75
2024/02/19 08:28:23;;;;;;;2.30;1.00;;;10.10;99.90;;;;;;5052252;28;20024;-76
2024/02/19 08:30:49;;;;;;;2.83;0.70;;;10.10;99.90;;;;;;5051385;28;20105;-75
2024/02/19 08:33:14;;;;;;;2.20;1.05;;;10.10;99.90;;;;;;5053326;28;20047;-75
2024/02/19 08:35:41;;;;;;;6.82;1.10;;;10.20;99.90;;;;;;5052880;28;20037;-75
2024/02/19 08:38:06;;;;;;;3.15;1.23;;;10.10;99.90;;;;;;5051037;28;20060;-75
2024/02/19 08:40:32;;;;;;;3.67;1.15;;;10.10;99.90;;;;;;5051598;28;20032;-75
2024/02/19 08:42:58;;;;;;;5.05;1.05;;;10.20;99.90;;;;;;5050620;28;20049;-75
2024/02/19 08:45:23;;;;;;;5.30;1.00;;;10.20;99.90;;;;;;5053009;28;20098;-75
2024/02/19 08:47:49;;;;;;;5.05;0.88;;;10.20;99.90;;;;;;5052297;28;20036;-75
2024/02/19 08:50:14;;;;;;;4.45;1.60;;;10.20;99.90;;;;;;5052804;28;20075;-75
2024/02/19 08:52:40;;;;;;;3.42;0.95;;;10.20;99.90;;;;;;5051501;28;20025;-75
2024/02/19 08:55:06;;;;;;;4.03;1.35;;;10.20;99.90;;;;;;5050917;28;20430;-75
2024/02/19 08:57:31;;;;;;;6.78;1.75;;;10.20;99.90;;;;;;5051134;28;20075;-75
2024/02/19 08:59:57;;;;;;;3.85;1.20;;;10.20;99.90;;;;;;5050814;28;20029;-75
2024/02/19 09:02:22;;;;;;;4.43;1.23;;;10.20;99.90;;;;;;5051333;28;20112;-75
2024/02/19 09:04:48;;;;;;;5.85;1.10;;;10.20;99.90;;;;;;5050628;28;20036;-75
2024/02/19 09:07:14;;;;;;;4.20;1.50;;;10.30;99.90;;;;;;5051541;28;20052;-78
2024/02/19 09:09:44;;;;;;;3.55;1.35;;;10.30;99.90;;;;;;5051364;28;20029;-75
2024/02/19 09:12:10;;;;;;;2.90;1.13;;;10.30;99.90;;;;;;5052347;28;20557;-75
2024/02/19 09:14:35;;;;;;;3.60;0.88;;;10.30;99.90;;;;;;5051161;28;20045;-77
2024/02/19 09:17:01;;;;;;;3.05;0.75;;;10.40;99.90;;;;;;5050609;28;20119;-75
2024/02/19 09:19:27;;;;;;;4.07;1.02;;;10.40;99.90;;;;;;5052006;28;20032;-75
2024/02/19 09:21:52;;;;;;;2.03;0.90;;;10.40;99.90;;;;;;5050625;28;20025;-75
2024/02/19 09:24:18;;;;;;;5.60;1.00;;;10.50;99.90;;;;;;5051111;28;20474;-77
2024/02/19 09:26:44;;;;;;;2.85;1.10;;;10.50;99.90;;;;;;5052381;28;20025;-75
2024/02/19 09:29:09;;;;;;;6.90;1.15;;;10.50;99.90;;;;;;5051667;28;20374;-74
2024/02/19 09:31:35;;;;;;;6.90;1.60;;;10.50;99.90;;;;;;5050682;28;20021;-77
2024/02/19 09:34:01;;;;;;;4.20;1.35;;;10.50;99.90;;;;;;5050315;28;20021;-75
2024/02/19 09:36:27;;;;;;;3.60;1.13;;;10.50;99.90;;;;;;5053358;28;20040;-75
2024/02/19 09:38:55;;;;;;;3.08;1.10;;;10.50;99.90;;;;;;5054430;28;20021;-78
2024/02/19 09:41:21;;;;;;;4.13;1.00;;;10.40;99.90;;;;;;5054857;28;20029;-76
2024/02/19 09:43:47;;;;;;;2.63;1.10;;;10.50;99.90;;;;;;5055729;28;20171;-75
2024/02/19 09:46:19;;;;;;;4.20;1.08;;;10.40;99.90;;;;;;5056104;28;20462;-75
2024/02/19 09:48:49;;;;;;;5.63;1.10;;;10.40;99.90;;;;;;5054992;28;20096;-78
2024/02/19 09:51:20;;;;;;;4.50;1.20;;;10.40;99.90;;;;;;5054712;28;20102;-78
2024/02/19 09:53:51;;;;;;;6.35;1.15;;;10.40;99.90;;;;;;5054454;28;20047;-75
2024/02/19 09:56:22;;;;;;;7.53;1.10;;;10.40;99.90;;;;;;5054752;28;20503;-77
2024/02/19 09:58:48;;;;;;;5.15;1.10;;;10.40;99.90;;;;;;5054151;28;20025;-78
2024/02/19 10:01:14;;;;;;;4.35;1.20;;;10.40;99.90;;;;;;5054520;28;20086;-75
2024/02/19 10:03:39;;;;;;;3.95;1.27;;;10.50;99.90;;;;;;5055898;28;20033;-78
2024/02/19 10:06:07;;;;;;;3.90;1.00;;;10.40;99.90;;;;;;5055268;28;20029;-76
2024/02/19 10:08:32;;;;;;;4.25;1.20;;;10.50;99.90;;;;;;5054423;28;20032;-75
2024/02/19 10:11:00;;;;;;;3.22;1.45;;;10.50;99.90;;;;;;5053795;28;20029;-75
2024/02/19 10:13:27;;;;;;;3.80;1.20;;;10.50;99.90;;;;;;5054046;28;20032;-75
2024/02/19 10:15:52;;;;;;;6.60;1.05;;;10.50;99.90;;;;;;5053727;28;20600;-75
2024/02/19 10:18:21;;;;;;;4.18;1.15;;;10.60;99.90;;;;;;5054554;28;20061;-75
2024/02/19 10:20:51;;;;;;;5.95;1.15;;;10.70;99.90;;;;;;5054154;28;20032;-75
2024/02/19 10:23:20;;;;;;;5.75;0.88;;;10.70;99.90;;;;;;5055503;28;20025;-75
2024/02/19 10:25:47;;;;;;;4.10;1.30;;;10.70;99.90;;;;;;5055800;28;20063;-75
2024/02/19 10:28:13;;;;;;;4.68;0.77;;;10.80;99.90;;;;;;5053506;28;20025;-75
2024/02/19 10:30:39;;;;;;;5.20;1.00;;;10.80;99.90;;;;;;5054020;28;20468;-75
2024/02/19 10:33:06;;;;;;;5.28;0.90;;;10.90;99.90;;;;;;5053372;28;20021;-75
2024/02/19 10:35:32;;;;;;;3.65;0.70;;;11.00;99.90;;;;;;5055209;28;20036;-74
2024/02/19 10:37:59;;;;;;;3.80;1.30;;;11.00;99.90;;;;;;5053283;28;20029;-75
2024/02/19 10:40:26;;;;;;;3.50;0.90;;;11.00;99.90;;;;;;5054003;28;20028;-75
2024/02/19 10:42:52;;;;;;;6.70;1.48;;;11.10;99.90;;;;;;5052751;28;20051;-75
2024/02/19 10:45:21;;;;;;;5.05;1.00;;;11.20;99.90;;;;;;5054073;28;20124;-74
2024/02/19 10:47:49;;;;;;;3.33;0.98;;;11.20;99.90;;;;;;5052409;28;20097;-75
2024/02/19 10:50:17;;;;;;;6.90;1.10;;;11.20;99.90;;;;;;5053197;28;20029;-74
2024/02/19 10:52:44;;;;;;;4.75;1.13;;;11.20;99.90;;;;;;5054786;28;20021;-75
2024/02/19 10:55:17;;;;;;;5.97;0.95;;;11.30;99.90;;;;;;5052753;28;20316;-75
2024/02/19 10:57:55;;;;;;;3.13;0.90;;;11.30;99.90;;;;;;5054683;28;20381;-75
2024/02/19 11:00:26;;;;;;;3.05;0.93;;;11.30;99.90;;;;;;5054713;28;20028;-75
2024/02/19 11:03:09;;;;;;;6.35;1.25;;;11.30;99.90;;;;;;5052795;28;20427;-75
2024/02/19 11:05:40;;;;;;;6.57;1.70;;;11.30;99.90;;;;;;5054567;28;20367;-74
2024/02/19 11:08:21;;;;;;;2.33;1.27;;;11.20;99.90;;;;;;5053920;28;20025;-75
2024/02/19 11:10:49;;;;;;;2.03;0.95;;;11.20;99.90;;;;;;5054570;28;20029;-74
2024/02/19 11:13:18;;;;;;;4.20;1.33;;;11.20;99.90;;;;;;5052569;28;20458;-75
2024/02/19 11:15:44;;;;;;;4.75;1.02;;;11.30;99.90;;;;;;5053096;28;20123;-75
2024/02/19 11:18:17;;;;;;;8.63;1.42;;;11.30;99.90;;;;;;5052573;28;20033;-75
2024/02/19 11:20:44;;;;;;;3.15;1.15;;;11.40;99.90;;;;;;5054568;28;20458;-75
2024/02/19 11:23:11;;;;;;;6.30;1.33;;;11.40;99.90;;;;;;5052813;28;20025;-75
2024/02/19 11:25:37;;;;;;;6.32;1.10;;;11.50;99.90;;;;;;5053251;28;20059;-75
2024/02/19 11:28:04;;;;;;;9.73;1.38;;;11.50;99.90;;;;;;5052533;28;20035;-75
2024/02/19 11:30:31;;;;;;;2.97;1.10;;;11.60;99.90;;;;;;5053162;28;20025;-75
2024/02/19 11:33:06;;;;;;;8.70;1.55;;;11.60;99.90;;;;;;5052344;28;20029;-76
2024/02/19 11:35:36;;;;;;;5.30;1.15;;;11.50;99.90;;;;;;5053084;28;20033;-76
2024/02/19 11:38:02;;;;;;;5.60;1.25;;;11.60;99.90;;;;;;5053330;28;20025;-75
2024/02/19 11:40:36;;;;;;;5.20;1.50;;;11.60;99.90;;;;;;5052771;28;20021;-75
2024/02/19 11:43:03;;;;;;;6.85;1.67;;;11.70;99.90;;;;;;5052079;28;20049;-76
2024/02/19 11:45:31;;;;;;;4.75;1.42;;;11.70;99.90;;;;;;5052727;28;20566;-75
2024/02/19 11:47:57;;;;;;;7.53;1.60;;;11.70;99.90;;;;;;5053476;28;20078;-76
2024/02/19 11:50:29;;;;;;;8.23;1.80;;;11.70;99.90;;;;;;5052771;28;20029;-76
2024/02/19 11:53:00;;;;;;;3.63;1.25;;;11.70;99.90;;;;;;5052980;28;20048;-75
2024/02/19 11:55:29;;;;;;;6.35;1.50;;;11.80;99.90;;;;;;5052496;28;20612;-76
2024/02/19 11:57:56;;;;;;;5.85;1.63;;;11.80;99.90;;;;;;5051945;28;20033;-76
2024/02/19 12:00:22;;;;;;;7.28;1.80;;;11.80;99.90;;;;;;5053851;28;20052;-76
2024/02/19 12:02:48;;;;;;;5.72;1.58;;;11.80;99.90;;;;;;5069115;28;20113;-76
2024/02/19 12:05:18;;;;;;;9.40;2.25;;;11.80;99.90;;;;;;5052652;28;20763;-76
2024/02/19 12:07:44;;;;;;;5.53;1.50;;;11.80;99.90;;;;;;5053577;28;20021;-76
2024/02/19 12:10:10;;;;;;;6.72;1.45;;;11.70;99.90;;;;;;5052935;28;20032;-76
2024/02/19 12:12:37;;;;;;;6.68;1.83;;;11.70;99.90;;;;;;5052134;28;20025;-76
2024/02/19 12:15:11;;;;;;;7.55;1.75;;;11.70;99.90;;;;;;5051636;28;20577;-76
2024/02/19 12:17:39;;;;;;;7.32;1.85;;;11.70;99.90;;;;;;5052233;28;20553;-76
2024/02/19 12:20:06;;;;;;;11.80;2.17;;;11.70;99.90;;;;;;5051623;28;20048;-75
2024/02/19 12:22:32;;;;;;;7.32;1.90;;;11.60;99.90;;;;;;5052013;28;20067;-76
2024/02/19 12:24:58;;;;;;;6.22;1.60;;;11.60;99.90;;;;;;5051466;28;20036;-75
2024/02/19 12:27:24;;;;;;;9.60;2.03;;;11.50;99.90;;;;;;5052952;28;20115;-76
2024/02/19 12:29:52;;;;;;;10.05;2.53;;;11.50;99.90;;;;;;5052221;28;20469;-76
2024/02/19 12:32:21;;;;;;;5.47;2.33;;;11.50;99.90;;;;;;5051308;28;20028;-76
2024/02/19 12:34:47;;;;;;;12.65;2.65;;;11.60;99.90;;;;;;5052822;28;20112;-76
2024/02/19 12:37:15;;;;;;;7.18;2.25;;;11.60;99.90;;;;;;5051261;28;20445;-76
2024/02/19 12:39:41;;;;;;;7.18;1.95;;;11.70;99.90;;;;;;5053097;28;20528;-76
2024/02/19 12:42:08;;;;;;;6.50;1.98;;;11.80;99.90;;;;;;5052557;28;20025;-76
2024/02/19 12:44:34;;;;;;;5.05;1.60;;;12.10;99.90;;;;;;5053111;28;20049;-76
2024/02/19 12:47:00;;;;;;;8.10;1.90;;;12.30;99.90;;;;;;5051135;28;20040;-76
2024/02/19 12:49:27;;;;;;;6.60;1.80;;;12.30;99.90;;;;;;5051603;28;20025;-76